Terminal Aerodrome Forecast
Issued by NWS

Home | Current Version | Previous Version | Text Only | Print | Product List | Glossary On
Versions: 1 2 3 4 5 6 7 8 9 10 11 12 13
000
FTUS43 KOAX 271720
TAFSNY
TAF
KSNY 271720Z 2718/2818 19011G23KT P6SM SCT150
     FM280000 32010KT P6SM SCT150
     FM280600 32012KT 2SM BR OVC015
     FM281500 33020G30KT P6SM BKN040=

USA.gov is the U.S. government's official web portal to all federal, state and local government web resources and services.